createdAt,value
2022-11-16T00:01:31.070Z,20.95
2022-11-16T00:04:35.172Z,22.45
2022-11-16T00:07:39.296Z,21.50
2022-11-16T00:10:43.558Z,18.63
2022-11-16T00:13:47.615Z,21.77
2022-11-16T00:16:51.810Z,22.08
2022-11-16T00:19:55.822Z,24.00
2022-11-16T00:23:00.085Z,22.92
2022-11-16T00:26:09.508Z,24.13
2022-11-16T00:29:19.531Z,24.73
2022-11-16T00:32:23.587Z,21.58
2022-11-16T00:35:28.092Z,24.77
2022-11-16T00:38:32.808Z,27.02
2022-11-16T00:41:37.115Z,24.85
2022-11-16T00:44:41.041Z,25.90
2022-11-16T00:47:44.965Z,25.58
2022-11-16T00:50:49.208Z,25.52
2022-11-16T00:53:53.322Z,25.90
2022-11-16T00:56:57.522Z,24.80
2022-11-16T01:00:02.194Z,28.90
2022-11-16T01:03:06.875Z,26.52
2022-11-16T01:06:12.982Z,25.98
2022-11-16T01:09:16.936Z,22.70
2022-11-16T01:12:21.021Z,23.33
2022-11-16T01:15:26.917Z,26.35
2022-11-16T01:18:31.039Z,25.23
2022-11-16T01:21:35.474Z,25.30
2022-11-16T01:24:39.763Z,23.75
2022-11-16T01:27:44.442Z,23.65
2022-11-16T01:30:48.893Z,24.60
2022-11-16T01:33:54.711Z,26.05
2022-11-16T01:36:58.568Z,24.00
2022-11-16T01:40:02.800Z,22.88
2022-11-16T01:43:20.324Z,23.60
2022-11-16T01:46:25.731Z,24.02
2022-11-16T01:49:32.816Z,24.40
2022-11-16T01:52:41.742Z,25.42
2022-11-16T01:55:47.483Z,24.88
2022-11-16T01:58:52.116Z,25.60
2022-11-16T02:01:56.848Z,22.52
2022-11-16T02:05:01.999Z,26.05
2022-11-16T02:08:32.909Z,24.83
2022-11-16T02:11:56.167Z,27.92
2022-11-16T02:15:24.910Z,26.63
2022-11-16T02:18:54.968Z,25.52
2022-11-16T02:22:14.057Z,24.58
2022-11-16T02:25:52.218Z,25.50
2022-11-16T02:29:19.614Z,22.70
2022-11-16T02:32:33.601Z,24.40
2022-11-16T02:35:56.354Z,27.67
2022-11-16T02:39:13.359Z,26.57
2022-11-16T02:42:23.022Z,25.83
2022-11-16T02:45:32.330Z,26.10
2022-11-16T02:48:42.945Z,24.38
2022-11-16T02:51:47.705Z,25.60
2022-11-16T02:54:51.551Z,23.70
2022-11-16T02:57:59.128Z,23.52
2022-11-16T03:01:08.724Z,22.85
2022-11-16T03:04:26.716Z,23.20
2022-11-16T03:07:37.284Z,24.35
2022-11-16T03:11:03.389Z,26.33
2022-11-16T03:14:13.903Z,23.30
2022-11-16T03:17:25.807Z,24.60
2022-11-16T03:20:34.284Z,22.75
2022-11-16T03:23:38.334Z,24.42
2022-11-16T03:26:56.455Z,22.08
2022-11-16T03:30:11.118Z,27.27
2022-11-16T03:33:30.171Z,25.00
2022-11-16T03:36:38.633Z,22.50
2022-11-16T03:39:44.158Z,25.10
2022-11-16T03:42:52.083Z,22.58
2022-11-16T03:45:56.810Z,21.13
2022-11-16T03:49:01.221Z,24.38
2022-11-16T03:52:05.957Z,22.30
2022-11-16T03:55:09.787Z,23.88
2022-11-16T03:58:13.922Z,23.60
2022-11-16T04:01:18.126Z,22.75
2022-11-16T04:04:40.951Z,22.55
2022-11-16T04:08:03.869Z,21.58
2022-11-16T04:11:34.952Z,24.37
2022-11-16T04:14:57.873Z,24.38
2022-11-16T04:18:20.555Z,24.08
2022-11-16T04:21:49.647Z,24.50
2022-11-16T04:24:59.656Z,21.23
2022-11-16T04:28:13.401Z,22.67
2022-11-16T04:31:35.778Z,24.17
2022-11-16T04:34:58.632Z,23.02
2022-11-16T04:38:02.610Z,24.47
2022-11-16T04:41:26.945Z,20.85
2022-11-16T04:44:53.262Z,21.55
2022-11-16T04:47:57.384Z,23.10
2022-11-16T04:51:01.284Z,21.15
2022-11-16T04:54:05.285Z,19.45
2022-11-16T04:57:09.192Z,20.45
2022-11-16T05:00:13.952Z,20.35
2022-11-16T05:03:17.827Z,19.52
2022-11-16T05:06:21.910Z,21.60
2022-11-16T05:09:26.150Z,24.27
2022-11-16T05:12:30.638Z,22.73
2022-11-16T05:15:34.406Z,18.95
2022-11-16T05:18:38.091Z,20.63
2022-11-16T05:21:42.048Z,19.88
2022-11-16T05:24:45.939Z,21.25
2022-11-16T05:27:49.759Z,20.25
2022-11-16T05:30:53.777Z,18.25
2022-11-16T05:33:57.895Z,20.17
2022-11-16T05:37:02.617Z,20.60
2022-11-16T05:40:07.503Z,20.77
2022-11-16T05:43:11.409Z,18.63
2022-11-16T05:46:15.401Z,21.30
2022-11-16T05:49:19.392Z,18.80
2022-11-16T05:52:23.613Z,18.65
2022-11-16T05:55:27.775Z,20.40
2022-11-16T05:58:32.096Z,20.10
2022-11-16T06:01:36.313Z,20.13
2022-11-16T06:04:40.381Z,19.08
2022-11-16T06:07:44.440Z,20.70
2022-11-16T06:10:48.312Z,18.20
2022-11-16T06:13:52.140Z,19.55
2022-11-16T06:16:56.481Z,17.88
2022-11-16T06:20:00.757Z,19.75
2022-11-16T06:23:05.212Z,18.98
2022-11-16T06:26:09.547Z,21.80
2022-11-16T06:29:14.860Z,20.00
2022-11-16T06:32:19.024Z,21.45
2022-11-16T06:35:23.280Z,19.38
2022-11-16T06:38:27.811Z,18.77
2022-11-16T06:41:32.807Z,20.30
2022-11-16T06:44:36.873Z,19.58
2022-11-16T06:47:41.136Z,19.80
2022-11-16T06:50:47.789Z,19.23
2022-11-16T06:53:52.234Z,20.35
2022-11-16T06:56:56.587Z,22.92
2022-11-16T07:00:00.297Z,22.10
2022-11-16T07:03:04.658Z,20.58
2022-11-16T07:06:11.296Z,19.77
2022-11-16T07:09:15.608Z,18.65
2022-11-16T07:12:19.830Z,19.23
2022-11-16T07:15:23.950Z,19.75
2022-11-16T07:18:28.273Z,18.17
2022-11-16T07:21:32.478Z,21.20
2022-11-16T07:24:36.691Z,18.75
2022-11-16T07:27:40.672Z,17.02
2022-11-16T07:30:44.862Z,17.00
2022-11-16T07:33:48.900Z,17.75
2022-11-16T07:36:52.715Z,16.58
2022-11-16T07:39:56.732Z,19.63
2022-11-16T07:43:00.811Z,19.50
2022-11-16T07:49:39.874Z,18.27
2022-11-16T07:52:46.494Z,18.15
2022-11-16T07:55:54.210Z,18.00
2022-11-16T07:58:59.093Z,16.35
2022-11-16T08:02:03.064Z,16.45
2022-11-16T08:05:07.527Z,17.02
2022-11-16T08:08:12.113Z,16.23
2022-11-16T08:11:16.493Z,17.17
2022-11-16T08:14:20.944Z,17.75
2022-11-16T08:17:25.082Z,15.25
2022-11-16T08:20:30.161Z,16.40
2022-11-16T08:23:34.370Z,17.20
2022-11-16T08:26:38.471Z,15.82
2022-11-16T08:29:42.607Z,15.65
2022-11-16T08:32:46.718Z,15.00
2022-11-16T08:35:51.455Z,14.40
2022-11-16T08:38:55.415Z,16.38
2022-11-16T08:41:59.640Z,15.02
2022-11-16T08:45:03.927Z,12.75
2022-11-16T08:48:08.199Z,14.15
2022-11-16T08:51:19.272Z,13.25
2022-11-16T08:54:24.055Z,13.27
2022-11-16T08:57:28.297Z,12.93
2022-11-16T09:00:32.273Z,14.05
2022-11-16T09:03:37.979Z,13.95
2022-11-16T09:06:42.026Z,13.07
2022-11-16T09:09:45.970Z,14.88
2022-11-16T09:12:50.263Z,12.98
2022-11-16T09:16:00.918Z,14.55
2022-11-16T09:19:04.638Z,15.38
2022-11-16T09:22:08.640Z,14.18
2022-11-16T09:25:12.586Z,13.45
2022-11-16T09:28:21.050Z,13.45
2022-11-16T09:31:29.698Z,12.85
2022-11-16T09:34:34.624Z,13.90
2022-11-16T09:37:39.111Z,15.27
2022-11-16T09:40:46.177Z,14.55
2022-11-16T09:44:40.599Z,14.18
2022-11-16T09:47:59.301Z,14.50
2022-11-16T09:51:08.207Z,16.27
2022-11-16T09:54:16.843Z,13.93
2022-11-16T09:57:28.256Z,15.93
2022-11-16T10:00:33.127Z,16.08
2022-11-16T10:03:42.749Z,15.52
2022-11-16T10:06:56.836Z,15.80
2022-11-16T10:10:01.015Z,16.75
2022-11-16T10:13:36.838Z,16.08
2022-11-16T10:16:47.958Z,16.30
2022-11-16T10:20:19.876Z,15.95
2022-11-16T10:23:38.749Z,16.98
2022-11-16T10:26:48.173Z,15.45
2022-11-16T10:30:01.078Z,15.30
2022-11-16T10:33:11.401Z,16.40
2022-11-16T10:36:16.503Z,15.85
2022-11-16T10:39:21.262Z,18.83
2022-11-16T10:42:37.041Z,17.05
2022-11-16T10:46:20.212Z,17.50
2022-11-16T10:49:47.907Z,15.15
2022-11-16T10:52:51.875Z,16.38
2022-11-16T10:56:32.406Z,16.88
2022-11-16T10:59:42.951Z,15.68
2022-11-16T11:02:48.545Z,14.77
2022-11-16T11:05:53.574Z,15.27
2022-11-16T11:09:22.549Z,14.70
2022-11-16T11:12:39.074Z,17.30
2022-11-16T11:15:44.742Z,16.48
2022-11-16T11:18:48.607Z,17.58
2022-11-16T11:21:59.763Z,15.77
2022-11-16T11:25:14.624Z,15.63
2022-11-16T11:28:28.518Z,14.85
2022-11-16T11:31:38.840Z,15.10
2022-11-16T11:34:47.213Z,16.42
2022-11-16T11:37:54.431Z,15.40
2022-11-16T11:41:05.050Z,18.77
2022-11-16T11:44:20.395Z,16.10
2022-11-16T11:48:17.320Z,14.55
2022-11-16T11:51:27.564Z,16.05
2022-11-16T11:54:52.771Z,18.20
2022-11-16T11:57:59.389Z,15.35
2022-11-16T12:01:44.260Z,16.52
2022-11-16T12:05:00.318Z,14.88
2022-11-16T12:08:18.608Z,14.00
2022-11-16T12:11:34.309Z,13.82
2022-11-16T12:15:00.358Z,17.38
2022-11-16T12:18:04.317Z,15.50
2022-11-16T12:21:19.513Z,14.68
2022-11-16T12:24:45.405Z,15.15
2022-11-16T12:28:37.079Z,16.83
2022-11-16T12:31:51.356Z,16.50
2022-11-16T12:35:01.968Z,12.95
2022-11-16T12:38:41.425Z,16.10
2022-11-16T12:42:23.645Z,14.25
2022-11-16T12:45:44.954Z,16.25
2022-11-16T12:49:02.393Z,15.18
2022-11-16T12:52:34.440Z,14.82
2022-11-16T12:56:04.608Z,17.80
2022-11-16T12:59:31.497Z,16.33
2022-11-16T13:03:00.685Z,15.27
2022-11-16T13:06:10.570Z,16.40
2022-11-16T13:09:18.548Z,15.48
2022-11-16T13:12:23.528Z,17.05
2022-11-16T13:15:37.638Z,22.55
2022-11-16T13:18:42.861Z,19.65
2022-11-16T13:22:03.437Z,24.42
2022-11-16T13:25:19.306Z,24.50
2022-11-16T13:28:36.858Z,31.23
2022-11-16T13:32:12.567Z,30.42
2022-11-16T13:35:18.383Z,33.17
2022-11-16T13:38:53.848Z,36.10
2022-11-16T13:42:13.098Z,39.00
2022-11-16T13:45:20.679Z,39.78
2022-11-16T13:48:33.729Z,39.75
2022-11-16T13:51:37.799Z,36.55
2022-11-16T13:54:50.277Z,39.78
2022-11-16T13:57:57.188Z,42.30
2022-11-16T14:01:10.690Z,39.60
2022-11-16T14:04:55.911Z,46.28
2022-11-16T14:08:19.934Z,44.60
2022-11-16T14:11:34.477Z,46.10
2022-11-16T14:15:15.192Z,48.90
2022-11-16T14:18:36.878Z,47.03
2022-11-16T14:21:55.323Z,51.55
2022-11-16T14:25:29.585Z,52.60
2022-11-16T14:28:59.281Z,57.92
2022-11-16T14:32:04.959Z,52.85
2022-11-16T14:35:31.044Z,54.83
2022-11-16T14:38:40.815Z,61.08
2022-11-16T14:41:46.296Z,54.70
2022-11-16T14:44:50.956Z,58.67
2022-11-16T14:48:16.981Z,58.00
2022-11-16T14:51:25.457Z,60.83
2022-11-16T14:54:38.241Z,61.13
2022-11-16T14:57:42.597Z,64.32
2022-11-16T15:01:04.793Z,66.45
2022-11-16T15:04:10.059Z,65.40
2022-11-16T15:07:15.359Z,65.22
2022-11-16T15:10:25.070Z,67.32
2022-11-16T15:13:29.111Z,70.80
2022-11-16T15:16:32.758Z,74.78
2022-11-16T15:19:36.846Z,71.10
2022-11-16T15:22:43.757Z,74.13
2022-11-16T15:25:56.305Z,73.18
2022-11-16T15:29:00.302Z,75.25
2022-11-16T15:32:06.781Z,67.03
2022-11-16T15:35:23.738Z,63.80
2022-11-16T15:38:30.679Z,70.47
2022-11-16T15:41:37.540Z,68.20
2022-11-16T15:44:43.162Z,63.63
2022-11-16T15:47:47.694Z,67.90
2022-11-16T15:51:01.463Z,64.43
2022-11-16T15:54:51.016Z,69.72
2022-11-16T15:58:07.507Z,60.70
2022-11-16T16:01:13.101Z,64.18
2022-11-16T16:04:18.472Z,61.53
2022-11-16T16:07:39.614Z,61.60
2022-11-16T16:10:44.128Z,56.83
2022-11-16T16:14:00.685Z,57.58
2022-11-16T16:17:04.407Z,51.70
2022-11-16T16:20:18.246Z,52.30
2022-11-16T16:23:25.015Z,54.10
2022-11-16T16:26:28.940Z,50.90
2022-11-16T16:29:33.199Z,59.08
2022-11-16T16:32:37.914Z,49.58
2022-11-16T16:35:42.261Z,51.88
2022-11-16T16:38:46.369Z,45.05
2022-11-16T16:41:50.638Z,45.97
2022-11-16T16:44:54.722Z,45.38
2022-11-16T16:47:58.738Z,42.10
2022-11-16T16:51:02.868Z,38.10
2022-11-16T16:54:07.244Z,42.40
2022-11-16T16:57:18.561Z,42.60
2022-11-16T17:00:23.449Z,37.97
2022-11-16T17:03:27.751Z,38.30
2022-11-16T17:06:32.187Z,38.35
2022-11-16T17:09:35.991Z,41.22
2022-11-16T17:12:40.474Z,33.53
2022-11-16T17:15:44.511Z,39.25
2022-11-16T17:18:53.801Z,38.95
2022-11-16T17:21:58.300Z,34.83
2022-11-16T17:25:02.146Z,35.30
2022-11-16T17:28:05.922Z,37.85
2022-11-16T17:31:11.539Z,34.35
2022-11-16T17:34:15.516Z,34.53
2022-11-16T17:37:19.751Z,34.45
2022-11-16T17:40:23.883Z,32.22
2022-11-16T17:43:27.803Z,29.23
2022-11-16T17:46:32.059Z,33.72
2022-11-16T17:49:36.212Z,32.55
2022-11-16T17:52:41.635Z,34.53
2022-11-16T17:55:45.291Z,31.90
2022-11-16T17:58:52.517Z,30.05
2022-11-16T18:01:57.866Z,29.33
2022-11-16T18:05:02.232Z,25.70
2022-11-16T18:08:08.130Z,26.75
2022-11-16T18:11:22.662Z,21.08
2022-11-16T18:14:26.787Z,23.23
2022-11-16T18:17:31.230Z,21.05
2022-11-16T18:20:37.054Z,20.60
2022-11-16T18:23:41.655Z,18.50
2022-11-16T18:26:45.599Z,22.88
2022-11-16T18:29:49.293Z,20.27
2022-11-16T18:32:53.554Z,21.08
2022-11-16T18:35:57.936Z,22.10
2022-11-16T18:39:04.679Z,19.15
2022-11-16T18:42:11.717Z,19.65
2022-11-16T18:45:15.820Z,15.45
2022-11-16T18:48:20.079Z,19.98
2022-11-16T18:51:26.212Z,19.25
2022-11-16T18:54:30.145Z,18.98
2022-11-16T18:57:34.325Z,14.75
2022-11-16T19:00:38.677Z,16.25
2022-11-16T19:03:43.076Z,13.32
2022-11-16T19:06:47.155Z,12.15
2022-11-16T19:09:51.802Z,13.35
2022-11-16T19:12:56.087Z,12.02
2022-11-16T19:16:00.269Z,11.00
2022-11-16T19:19:04.951Z,11.02
2022-11-16T19:22:09.113Z,9.65
2022-11-16T19:25:13.497Z,9.77
2022-11-16T19:28:17.549Z,10.32
2022-11-16T19:31:24.733Z,10.52
2022-11-16T19:34:33.154Z,10.40
2022-11-16T19:37:38.885Z,7.75
2022-11-16T19:40:43.440Z,11.18
2022-11-16T19:43:48.412Z,7.97
2022-11-16T19:46:54.384Z,9.35
2022-11-16T19:49:58.127Z,8.23
2022-11-16T19:53:02.417Z,6.72
2022-11-16T19:56:07.364Z,8.18
2022-11-16T19:59:11.698Z,7.05
2022-11-16T20:02:16.023Z,7.63
2022-11-16T20:05:20.226Z,6.93
2022-11-16T20:08:24.425Z,6.60
2022-11-16T20:11:31.178Z,6.75
2022-11-16T20:14:35.117Z,6.53
2022-11-16T20:17:39.131Z,7.07
2022-11-16T20:20:43.449Z,7.78
2022-11-16T20:23:47.578Z,8.38
2022-11-16T20:26:51.699Z,6.75
2022-11-16T20:29:55.621Z,7.05
2022-11-16T20:32:59.268Z,8.73
2022-11-16T20:36:05.490Z,6.93
2022-11-16T20:39:13.981Z,7.00
2022-11-16T20:42:19.441Z,6.82
2022-11-16T20:45:23.762Z,5.72
2022-11-16T20:48:27.567Z,7.13
2022-11-16T20:51:31.250Z,7.00
2022-11-16T20:54:35.175Z,5.97
2022-11-16T20:57:39.427Z,6.50
2022-11-16T21:00:43.520Z,6.03
2022-11-16T21:03:47.593Z,5.70
2022-11-16T21:06:51.811Z,6.68
2022-11-16T21:10:22.158Z,6.28
2022-11-16T21:13:44.788Z,7.18
2022-11-16T21:16:49.217Z,6.95
2022-11-16T21:20:20.232Z,7.07
2022-11-16T21:23:17.208Z,7.65
2022-11-16T21:26:28.327Z,7.38
2022-11-16T21:29:32.339Z,9.93
2022-11-16T21:32:36.323Z,7.80
2022-11-16T21:35:40.323Z,6.93
2022-11-16T21:38:44.412Z,6.85
2022-11-16T21:41:48.458Z,7.90
2022-11-16T21:44:52.264Z,8.15
2022-11-16T21:47:56.378Z,7.47
2022-11-16T21:51:05.391Z,7.43
2022-11-16T21:54:09.593Z,5.97
2022-11-16T21:57:17.443Z,8.68
2022-11-16T22:00:21.556Z,8.00
2022-11-16T22:03:30.498Z,9.65
2022-11-16T22:06:53.018Z,6.88
2022-11-16T22:09:57.317Z,7.03
2022-11-16T22:13:01.561Z,6.68
2022-11-16T22:16:17.198Z,6.68
2022-11-16T22:19:21.193Z,7.95
2022-11-16T22:22:25.125Z,9.70
2022-11-16T22:25:29.040Z,6.95
2022-11-16T22:28:34.174Z,7.97
2022-11-16T22:31:38.103Z,6.55
2022-11-16T22:34:42.023Z,7.05
2022-11-16T22:37:45.893Z,7.45
2022-11-16T22:40:54.766Z,7.85
2022-11-16T22:43:58.844Z,7.50
2022-11-16T22:47:03.319Z,8.80
2022-11-16T22:50:07.789Z,8.13
2022-11-16T22:53:12.184Z,6.97
2022-11-16T22:56:16.327Z,7.82
2022-11-16T22:59:20.326Z,8.05
2022-11-16T23:02:24.162Z,8.50
2022-11-16T23:05:28.595Z,8.10
2022-11-16T23:08:33.784Z,7.32
2022-11-16T23:11:56.602Z,8.50
2022-11-16T23:15:19.449Z,8.02
2022-11-16T23:18:23.569Z,8.27
2022-11-16T23:21:46.494Z,7.50
2022-11-16T23:25:09.229Z,9.10
2022-11-16T23:28:14.878Z,8.57
2022-11-16T23:31:19.026Z,8.70
2022-11-16T23:34:23.062Z,8.43
2022-11-16T23:37:26.967Z,8.73
2022-11-16T23:40:33.832Z,9.57
2022-11-16T23:43:56.638Z,10.40
2022-11-16T23:47:00.593Z,7.68
2022-11-16T23:50:05.291Z,8.40
2022-11-16T23:53:10.440Z,7.65
2022-11-16T23:56:14.444Z,10.23
2022-11-16T23:59:18.455Z,8.55
